createdAt,value
2017-11-04T00:00:58.208Z,25.63
2017-11-04T00:03:26.532Z,21.27
2017-11-04T00:05:54.069Z,20.53
2017-11-04T00:08:22.391Z,18.80
2017-11-04T00:10:49.920Z,21.23
2017-11-04T00:13:17.455Z,21.40
2017-11-04T00:15:44.989Z,23.30
2017-11-04T00:18:13.346Z,19.70
2017-11-04T00:20:40.909Z,23.40
2017-11-04T00:23:09.144Z,22.30
2017-11-04T00:25:37.466Z,25.10
2017-11-04T00:28:05.000Z,28.03
2017-11-04T00:30:32.534Z,24.37
2017-11-04T00:33:00.070Z,22.43
2017-11-04T00:35:27.608Z,23.17
2017-11-04T00:37:55.143Z,22.03
2017-11-04T00:40:22.681Z,25.10
2017-11-04T00:42:50.264Z,25.27
2017-11-04T00:45:17.797Z,21.13
2017-11-04T00:47:45.333Z,22.53
2017-11-04T00:50:12.870Z,26.40
2017-11-04T00:52:40.627Z,23.90
2017-11-04T00:55:08.159Z,24.90
2017-11-04T00:57:35.696Z,24.60
2017-11-04T01:00:03.233Z,23.03
2017-11-04T01:02:31.667Z,22.00
2017-11-04T01:04:59.248Z,24.60
2017-11-04T01:07:27.584Z,24.60
2017-11-04T01:09:55.556Z,23.17
2017-11-04T01:12:23.100Z,22.17
2017-11-04T01:14:50.632Z,23.80
2017-11-04T01:17:18.181Z,21.43
2017-11-04T01:19:45.713Z,24.20
2017-11-04T01:22:13.249Z,25.60
2017-11-04T01:24:41.528Z,22.73
2017-11-04T01:27:09.051Z,21.50
2017-11-04T01:29:36.579Z,25.50
2017-11-04T01:32:04.113Z,22.43
2017-11-04T01:34:31.694Z,21.50
2017-11-04T01:36:59.246Z,23.80
2017-11-04T01:39:26.794Z,23.60
2017-11-04T01:41:54.324Z,22.83
2017-11-04T01:44:21.861Z,21.30
2017-11-04T01:46:49.393Z,22.63
2017-11-04T01:49:17.846Z,18.23
2017-11-04T01:51:45.381Z,21.77
2017-11-04T01:54:13.295Z,21.57
2017-11-04T01:56:40.819Z,21.43
2017-11-04T01:59:08.353Z,21.00
2017-11-04T02:01:35.884Z,21.13
2017-11-04T02:04:03.419Z,25.00
2017-11-04T02:06:30.981Z,29.60
2017-11-04T02:08:58.520Z,30.20
2017-11-04T02:11:26.058Z,26.97
2017-11-04T02:13:53.588Z,27.50
2017-11-04T02:16:21.933Z,23.17
2017-11-04T02:18:49.467Z,24.30
2017-11-04T02:21:17.007Z,22.20
2017-11-04T02:23:44.537Z,23.10
2017-11-04T02:26:12.070Z,29.03
2017-11-04T02:28:39.649Z,21.27
2017-11-04T02:31:08.027Z,27.17
2017-11-04T02:33:35.560Z,24.70
2017-11-04T02:36:04.004Z,25.43
2017-11-04T02:38:31.539Z,23.23
2017-11-04T02:40:59.077Z,24.13
2017-11-04T02:43:26.612Z,24.67
2017-11-04T02:45:55.046Z,24.23
2017-11-04T02:48:22.577Z,21.87
2017-11-04T02:50:50.108Z,22.00
2017-11-04T02:53:17.648Z,20.70
2017-11-04T02:55:46.216Z,21.70
2017-11-04T02:58:13.748Z,22.20
2017-11-04T03:00:41.292Z,20.57
2017-11-04T03:03:08.831Z,21.43
2017-11-04T03:05:36.925Z,22.80
2017-11-04T03:08:04.466Z,19.60
2017-11-04T03:10:32.009Z,22.00
2017-11-04T03:12:59.545Z,23.93
2017-11-04T03:15:27.083Z,21.27
2017-11-04T03:17:56.272Z,22.13
2017-11-04T03:20:23.805Z,22.27
2017-11-04T03:22:51.343Z,22.40
2017-11-04T03:25:18.875Z,22.63
2017-11-04T03:27:46.461Z,21.87
2017-11-04T03:30:14.000Z,21.37
2017-11-04T03:32:41.552Z,22.47
2017-11-04T03:35:09.128Z,23.27
2017-11-04T03:37:36.665Z,26.63
2017-11-04T03:40:04.205Z,26.00
2017-11-04T03:42:31.741Z,23.73
2017-11-04T03:44:59.276Z,23.40
2017-11-04T03:47:27.320Z,21.80
2017-11-04T03:49:54.851Z,23.23
2017-11-04T03:52:22.385Z,22.20
2017-11-04T03:54:49.924Z,22.77
2017-11-04T03:57:17.457Z,24.43
2017-11-04T03:59:44.988Z,23.60
2017-11-04T04:02:12.530Z,21.80
2017-11-04T04:04:40.081Z,23.83
2017-11-04T04:07:07.610Z,22.23
2017-11-04T04:09:35.136Z,23.23
2017-11-04T04:12:02.677Z,23.67
2017-11-04T04:14:30.221Z,23.20
2017-11-04T04:16:57.758Z,26.10
2017-11-04T04:19:25.291Z,22.67
2017-11-04T04:21:52.829Z,22.53
2017-11-04T04:24:20.361Z,20.50
2017-11-04T04:26:47.896Z,23.37
2017-11-04T04:29:15.444Z,23.13
2017-11-04T04:31:42.985Z,24.27
2017-11-04T04:34:10.517Z,21.60
2017-11-04T04:36:38.060Z,22.73
2017-11-04T04:39:05.599Z,21.30
2017-11-04T04:41:33.131Z,22.57
2017-11-04T04:44:00.672Z,20.13
2017-11-04T04:46:28.201Z,22.50
2017-11-04T04:48:55.836Z,22.27
2017-11-04T04:51:24.563Z,23.17
2017-11-04T04:53:52.095Z,24.27
2017-11-04T04:56:19.628Z,24.57
2017-11-04T04:58:47.169Z,23.13
2017-11-04T05:01:14.705Z,23.57
2017-11-04T05:03:42.246Z,24.67
2017-11-04T05:06:11.714Z,23.63
2017-11-04T05:08:39.249Z,24.23
2017-11-04T05:11:06.784Z,26.70
2017-11-04T05:13:34.318Z,22.90
2017-11-04T05:16:01.859Z,22.77
2017-11-04T05:18:29.398Z,22.50
2017-11-04T05:20:56.935Z,24.27
2017-11-04T05:23:24.481Z,21.93
2017-11-04T05:25:52.020Z,21.17
2017-11-04T05:28:19.559Z,26.63
2017-11-04T05:30:47.569Z,26.92
2017-11-04T05:33:15.132Z,26.63
2017-11-04T05:35:42.669Z,25.70
2017-11-04T05:38:10.203Z,24.87
2017-11-04T05:40:37.742Z,24.77
2017-11-04T05:43:05.281Z,25.27
2017-11-04T05:45:32.843Z,23.97
2017-11-04T05:48:00.376Z,27.60
2017-11-04T05:50:28.344Z,26.87
2017-11-04T05:52:55.880Z,27.53
2017-11-04T05:55:23.421Z,27.77
2017-11-04T05:57:50.949Z,26.10
2017-11-04T06:00:19.067Z,24.27
2017-11-04T06:02:46.657Z,22.23
2017-11-04T06:05:14.194Z,23.47
2017-11-04T06:07:41.729Z,22.40
2017-11-04T06:10:09.266Z,26.57
2017-11-04T06:12:36.800Z,23.87
2017-11-04T06:15:04.336Z,27.67
2017-11-04T06:17:31.875Z,25.47
2017-11-04T06:19:59.413Z,25.17
2017-11-04T06:22:26.966Z,25.37
2017-11-04T06:24:54.506Z,25.50
2017-11-04T06:27:22.128Z,25.10
2017-11-04T06:29:49.660Z,23.40
2017-11-04T06:32:17.199Z,24.27
2017-11-04T06:34:44.728Z,26.90
2017-11-04T06:37:12.270Z,27.63
2017-11-04T06:39:39.815Z,24.50
2017-11-04T06:42:07.349Z,23.50
2017-11-04T06:44:34.886Z,24.53
2017-11-04T06:47:02.423Z,26.60
2017-11-04T06:49:29.952Z,27.20
2017-11-04T06:51:58.075Z,29.70
2017-11-04T06:54:27.247Z,30.33
2017-11-04T06:56:54.788Z,29.07
2017-11-04T06:59:22.322Z,28.77
2017-11-04T07:01:49.871Z,26.70
2017-11-04T07:04:17.448Z,28.40
2017-11-04T07:06:44.990Z,24.80
2017-11-04T07:09:12.524Z,28.47
2017-11-04T07:11:40.110Z,29.17
2017-11-04T07:14:07.651Z,26.53
2017-11-04T07:16:35.198Z,29.00
2017-11-04T07:19:02.737Z,28.10
2017-11-04T07:21:30.296Z,30.90
2017-11-04T07:23:58.421Z,28.50
2017-11-04T07:26:25.960Z,30.00
2017-11-04T07:28:54.049Z,28.37
2017-11-04T07:31:21.628Z,29.30
2017-11-04T07:33:50.265Z,28.30
2017-11-04T07:36:18.119Z,28.67
2017-11-04T07:38:45.795Z,27.97
2017-11-04T07:41:14.139Z,28.60
2017-11-04T07:43:43.326Z,28.80
2017-11-04T07:46:11.257Z,26.60
2017-11-04T07:48:39.676Z,28.20
2017-11-04T07:51:07.722Z,30.17
2017-11-04T07:53:35.451Z,29.17
2017-11-04T07:56:02.997Z,28.10
2017-11-04T07:58:31.257Z,26.07
2017-11-04T08:00:59.377Z,28.33
2017-11-04T08:03:28.200Z,28.40
2017-11-04T08:05:55.744Z,28.10
2017-11-04T08:08:23.279Z,26.97
2017-11-04T08:10:50.821Z,27.53
2017-11-04T08:13:18.398Z,26.77
2017-11-04T08:15:46.261Z,27.10
2017-11-04T08:18:13.795Z,30.50
2017-11-04T08:20:41.332Z,29.83
2017-11-04T08:23:08.870Z,30.90
2017-11-04T08:25:36.410Z,26.60
2017-11-04T08:28:03.949Z,27.57
2017-11-04T08:30:31.487Z,28.67
2017-11-04T08:32:59.044Z,27.93
2017-11-04T08:35:27.253Z,28.63
2017-11-04T08:37:54.798Z,28.20
2017-11-04T08:40:22.334Z,32.60
2017-11-04T08:42:49.870Z,30.00
2017-11-04T08:45:17.453Z,35.13
2017-11-04T08:47:44.988Z,34.40
2017-11-04T08:50:12.646Z,25.13
2017-11-04T08:52:40.465Z,27.87
2017-11-04T08:55:08.065Z,27.20
2017-11-04T08:57:36.188Z,26.03
2017-11-04T09:00:03.733Z,26.00
2017-11-04T09:02:31.366Z,24.23
2017-11-04T09:04:58.906Z,25.23
2017-11-04T09:07:26.445Z,26.47
2017-11-04T09:09:53.983Z,26.40
2017-11-04T09:12:21.690Z,28.10
2017-11-04T09:14:49.293Z,26.17
2017-11-04T09:17:16.840Z,26.00
2017-11-04T09:19:44.398Z,28.07
2017-11-04T09:22:12.301Z,26.33
2017-11-04T09:24:39.852Z,25.60
2017-11-04T09:27:07.455Z,25.97
2017-11-04T09:29:35.378Z,29.33
2017-11-04T09:32:03.470Z,27.53
2017-11-04T09:34:31.011Z,26.67
2017-11-04T09:36:58.604Z,24.30
2017-11-04T09:39:26.138Z,24.10
2017-11-04T09:41:53.677Z,23.60
2017-11-04T09:44:21.213Z,23.10
2017-11-04T09:46:48.795Z,24.50
2017-11-04T09:49:16.329Z,24.10
2017-11-04T09:51:43.872Z,25.20
2017-11-04T09:54:11.413Z,22.23
2017-11-04T09:56:38.969Z,24.30
2017-11-04T09:59:07.100Z,21.63
2017-11-04T10:01:36.301Z,23.57
2017-11-04T10:04:05.741Z,23.27
2017-11-04T10:06:33.379Z,22.83
2017-11-04T10:09:00.926Z,23.37
2017-11-04T10:11:28.464Z,22.90
2017-11-04T10:13:56.034Z,23.80
2017-11-04T10:16:23.568Z,26.00
2017-11-04T10:18:51.110Z,24.73
2017-11-04T10:21:18.653Z,24.17
2017-11-04T10:23:46.996Z,20.47
2017-11-04T10:26:15.201Z,25.50
2017-11-04T10:28:42.751Z,23.33
2017-11-04T10:31:10.288Z,21.07
2017-11-04T10:33:37.835Z,22.80
2017-11-04T10:36:05.386Z,23.43
2017-11-04T10:38:32.928Z,20.67
2017-11-04T10:41:00.516Z,20.97
2017-11-04T10:43:28.069Z,20.43
2017-11-04T10:45:55.617Z,20.63
2017-11-04T10:48:23.160Z,22.85
2017-11-04T10:50:50.719Z,22.27
2017-11-04T10:53:18.332Z,22.20
2017-11-04T10:55:45.873Z,21.20
2017-11-04T10:58:13.731Z,24.57
2017-11-04T11:00:41.271Z,24.67
2017-11-04T11:03:08.818Z,19.80
2017-11-04T11:05:36.365Z,20.60
2017-11-04T11:08:03.928Z,19.30
2017-11-04T11:10:31.474Z,24.30
2017-11-04T11:12:59.064Z,22.53
2017-11-04T11:15:26.616Z,19.90
2017-11-04T11:17:54.158Z,20.70
2017-11-04T11:20:22.404Z,21.70
2017-11-04T11:22:49.980Z,21.80
2017-11-04T11:25:17.524Z,19.20
2017-11-04T11:27:45.076Z,22.30
2017-11-04T11:30:12.629Z,20.30
2017-11-04T11:32:40.164Z,22.00
2017-11-04T11:35:07.714Z,19.67
2017-11-04T11:37:35.257Z,18.50
2017-11-04T11:40:02.801Z,18.20
2017-11-04T11:42:30.381Z,18.37
2017-11-04T11:44:57.928Z,19.23
2017-11-04T11:47:25.467Z,18.23
2017-11-04T11:49:53.056Z,17.77
2017-11-04T11:52:20.886Z,17.40
2017-11-04T11:54:48.446Z,18.10
2017-11-04T11:57:15.993Z,18.07
2017-11-04T11:59:43.533Z,18.13
2017-11-04T12:02:11.076Z,19.67
2017-11-04T12:04:38.625Z,18.37
2017-11-04T12:07:06.194Z,18.57
2017-11-04T12:09:33.749Z,18.73
2017-11-04T12:12:01.293Z,20.60
2017-11-04T12:14:28.842Z,19.57
2017-11-04T12:16:56.385Z,18.47
2017-11-04T12:19:23.928Z,19.27
2017-11-04T12:21:52.444Z,19.27
2017-11-04T12:24:19.991Z,18.80
2017-11-04T12:26:47.580Z,19.73
2017-11-04T12:29:15.128Z,17.73
2017-11-04T12:31:42.672Z,21.17
2017-11-04T12:34:10.259Z,18.37
2017-11-04T12:36:37.802Z,17.83
2017-11-04T12:39:05.341Z,19.27
2017-11-04T12:41:33.573Z,20.77
2017-11-04T12:44:01.645Z,19.40
2017-11-04T12:46:29.187Z,18.23
2017-11-04T12:48:56.735Z,18.27
2017-11-04T12:51:24.294Z,20.50
2017-11-04T12:53:51.843Z,19.93
2017-11-04T12:56:19.388Z,21.77
2017-11-04T12:58:46.932Z,20.67
2017-11-04T13:01:14.479Z,19.33
2017-11-04T13:03:42.065Z,17.37
2017-11-04T13:06:09.609Z,17.93
2017-11-04T13:08:37.156Z,17.83
2017-11-04T13:11:04.703Z,19.43
2017-11-04T13:13:33.172Z,19.00
2017-11-04T13:16:00.985Z,16.73
2017-11-04T13:18:28.522Z,18.47
2017-11-04T13:20:56.071Z,18.60
2017-11-04T13:23:23.652Z,17.87
2017-11-04T13:25:51.192Z,17.13
2017-11-04T13:28:18.731Z,17.30
2017-11-04T13:30:46.286Z,19.17
2017-11-04T13:33:13.827Z,17.83
2017-11-04T13:35:41.408Z,16.27
2017-11-04T13:38:08.967Z,16.40
2017-11-04T13:40:36.504Z,17.80
2017-11-04T13:43:04.046Z,17.53
2017-11-04T13:45:32.514Z,18.03
2017-11-04T13:48:00.096Z,18.13
2017-11-04T13:50:27.649Z,16.73
2017-11-04T13:52:55.192Z,17.50
2017-11-04T13:55:23.153Z,16.03
2017-11-04T13:57:50.687Z,18.50
2017-11-04T14:00:19.733Z,15.83
2017-11-04T14:02:47.280Z,16.70
2017-11-04T14:05:14.823Z,17.57
2017-11-04T14:07:42.367Z,16.53
2017-11-04T14:10:09.910Z,17.27
2017-11-04T14:12:37.444Z,16.40
2017-11-04T14:15:04.986Z,16.50
2017-11-04T14:17:32.530Z,14.70
2017-11-04T14:20:00.078Z,17.73
2017-11-04T14:22:27.622Z,15.03
2017-11-04T14:24:55.199Z,16.90
2017-11-04T14:27:23.120Z,15.57
2017-11-04T14:29:50.674Z,16.83
2017-11-04T14:32:18.261Z,19.30
2017-11-04T14:34:45.805Z,17.37
2017-11-04T14:37:13.356Z,14.77
2017-11-04T14:39:40.901Z,15.00
2017-11-04T14:42:08.458Z,15.87
2017-11-04T14:44:36.003Z,15.53
2017-11-04T14:47:03.555Z,14.50
2017-11-04T14:49:31.107Z,14.90
2017-11-04T14:51:58.651Z,15.37
2017-11-04T14:54:26.203Z,16.77
2017-11-04T14:56:54.479Z,15.93
2017-11-04T14:59:22.552Z,15.17
2017-11-04T15:01:50.131Z,17.50
2017-11-04T15:04:17.693Z,16.77
2017-11-04T15:06:45.235Z,18.97
2017-11-04T15:09:12.778Z,17.57
2017-11-04T15:11:40.317Z,17.50
2017-11-04T15:14:07.861Z,19.10
2017-11-04T15:16:35.405Z,20.57
2017-11-04T15:19:02.944Z,19.60
2017-11-04T15:21:30.496Z,20.17
2017-11-04T15:23:58.073Z,21.20
2017-11-04T15:26:25.659Z,22.33
2017-11-04T15:28:53.894Z,20.50
2017-11-04T15:31:21.428Z,17.87
2017-11-04T15:33:49.018Z,17.23
2017-11-04T15:36:16.557Z,18.03
2017-11-04T15:38:44.096Z,16.80
2017-11-04T15:41:11.637Z,15.93
2017-11-04T15:43:39.214Z,16.10
2017-11-04T15:46:06.757Z,17.30
2017-11-04T15:48:34.383Z,17.40
2017-11-04T15:51:01.920Z,16.70
2017-11-04T15:53:29.488Z,16.50
2017-11-04T15:55:57.032Z,15.40
2017-11-04T15:58:24.577Z,16.40
2017-11-04T16:00:52.129Z,17.10
2017-11-04T16:03:19.711Z,16.63
2017-11-04T16:05:47.253Z,16.00
2017-11-04T16:08:14.838Z,16.97
2017-11-04T16:10:42.384Z,15.97
2017-11-04T16:13:09.923Z,16.40
2017-11-04T16:15:37.458Z,14.90
2017-11-04T16:18:05.000Z,15.03
2017-11-04T16:20:32.571Z,14.60
2017-11-04T16:23:00.113Z,15.43
2017-11-04T16:25:27.646Z,15.83
2017-11-04T16:27:55.191Z,15.87
2017-11-04T16:30:23.269Z,16.07
2017-11-04T16:32:50.816Z,15.17
2017-11-04T16:35:18.402Z,14.67
2017-11-04T16:37:45.948Z,16.77
2017-11-04T16:40:13.518Z,19.07
2017-11-04T16:42:41.065Z,17.60
2017-11-04T16:45:08.605Z,16.70
2017-11-04T16:47:36.140Z,15.80
2017-11-04T16:50:03.715Z,18.80
2017-11-04T16:52:31.269Z,19.23
2017-11-04T16:54:58.809Z,18.20
2017-11-04T16:57:26.381Z,17.93
2017-11-04T16:59:54.871Z,17.43
2017-11-04T17:02:22.458Z,16.00
2017-11-04T17:04:49.997Z,18.27
2017-11-04T17:07:17.540Z,15.97
2017-11-04T17:09:45.077Z,16.80
2017-11-04T17:12:12.620Z,22.33
2017-11-04T17:14:40.201Z,24.07
2017-11-04T17:17:07.737Z,19.10
2017-11-04T17:19:35.278Z,18.87
2017-11-04T17:22:02.823Z,17.77
2017-11-04T17:24:30.352Z,19.53
2017-11-04T17:26:58.717Z,17.70
2017-11-04T17:29:26.256Z,16.40
2017-11-04T17:31:53.793Z,17.07
2017-11-04T17:34:21.329Z,17.83
2017-11-04T17:36:48.864Z,16.00
2017-11-04T17:39:17.101Z,17.60
2017-11-04T17:41:44.948Z,16.70
2017-11-04T17:44:12.475Z,17.43
2017-11-04T17:46:40.017Z,18.93
2017-11-04T17:49:07.579Z,16.30
2017-11-04T17:51:35.108Z,22.73
2017-11-04T17:54:02.655Z,17.60
2017-11-04T17:56:30.190Z,15.50
2017-11-04T17:58:57.759Z,16.93
2017-11-04T18:01:25.341Z,16.23
2017-11-04T18:03:53.897Z,15.10
2017-11-04T18:06:21.440Z,16.87
2017-11-04T18:08:49.014Z,18.40
2017-11-04T18:11:17.529Z,17.30
2017-11-04T18:13:46.258Z,16.33
2017-11-04T18:16:13.844Z,16.00
2017-11-04T18:18:42.295Z,15.93
2017-11-04T18:21:09.824Z,17.20
2017-11-04T18:23:37.366Z,14.37
2017-11-04T18:26:04.928Z,17.60
2017-11-04T18:28:33.195Z,15.60
2017-11-04T18:31:00.765Z,16.83
2017-11-04T18:33:28.306Z,17.20
2017-11-04T18:35:55.854Z,18.57
2017-11-04T18:38:23.386Z,17.50
2017-11-04T18:40:50.965Z,16.03
2017-11-04T18:43:18.505Z,16.23
2017-11-04T18:45:46.049Z,19.00
2017-11-04T18:48:13.626Z,18.00
2017-11-04T18:50:41.161Z,17.00
2017-11-04T18:53:08.697Z,16.10
2017-11-04T18:55:36.227Z,15.37
2017-11-04T18:58:03.835Z,15.77
2017-11-04T19:00:31.385Z,17.97
2017-11-04T19:02:58.960Z,15.53
2017-11-04T19:05:27.358Z,17.53
2017-11-04T19:07:54.908Z,17.10
2017-11-04T19:10:22.488Z,17.67
2017-11-04T19:12:50.025Z,17.90
2017-11-04T19:15:17.556Z,18.23
2017-11-04T19:17:45.097Z,18.10
2017-11-04T19:20:12.644Z,16.33
2017-11-04T19:22:40.391Z,17.33
2017-11-04T19:25:08.093Z,18.50
2017-11-04T19:27:35.625Z,19.20
2017-11-04T19:30:03.169Z,19.20
2017-11-04T19:32:30.710Z,18.87
2017-11-04T19:34:58.293Z,17.07
2017-11-04T19:37:25.830Z,18.10
2017-11-04T19:39:53.376Z,20.00
2017-11-04T19:42:20.916Z,17.80
2017-11-04T19:44:48.458Z,18.07
2017-11-04T19:47:16.000Z,18.77
2017-11-04T19:49:43.541Z,17.40
2017-11-04T19:52:11.077Z,19.70
2017-11-04T19:54:39.577Z,17.10
2017-11-04T19:57:07.153Z,19.60
2017-11-04T19:59:34.739Z,16.90
2017-11-04T20:02:03.020Z,17.40
2017-11-04T20:04:30.570Z,18.90
2017-11-04T20:06:58.139Z,20.30
2017-11-04T20:09:25.835Z,17.97
2017-11-04T20:11:53.592Z,19.00
2017-11-04T20:14:21.169Z,19.37
2017-11-04T20:16:49.510Z,18.87
2017-11-04T20:19:17.758Z,19.90
2017-11-04T20:21:45.303Z,20.50
2017-11-04T20:24:12.845Z,17.93
2017-11-04T20:26:40.379Z,18.43
2017-11-04T20:29:07.924Z,20.80
2017-11-04T20:31:35.482Z,18.97
2017-11-04T20:34:03.069Z,20.50
2017-11-04T20:36:30.612Z,19.73
2017-11-04T20:38:59.313Z,19.90
2017-11-04T20:41:26.890Z,18.87
2017-11-04T20:43:54.457Z,19.93
2017-11-04T20:46:22.037Z,19.97
2017-11-04T20:48:49.586Z,21.23
2017-11-04T20:51:17.134Z,19.27
2017-11-04T20:53:45.930Z,19.63
2017-11-04T20:56:13.969Z,20.10
2017-11-04T20:58:41.906Z,18.87
2017-11-04T21:01:09.459Z,19.73
2017-11-04T21:03:37.029Z,20.30
2017-11-04T21:06:04.821Z,21.50
2017-11-04T21:08:32.474Z,20.33
2017-11-04T21:11:00.015Z,19.83
2017-11-04T21:13:27.557Z,20.13
2017-11-04T21:15:55.110Z,20.20
2017-11-04T21:18:22.683Z,19.70
2017-11-04T21:20:50.271Z,21.53
2017-11-04T21:23:17.813Z,22.40
2017-11-04T21:25:45.358Z,21.00
2017-11-04T21:28:13.231Z,19.83
2017-11-04T21:30:40.833Z,20.43
2017-11-04T21:33:08.370Z,22.17
2017-11-04T21:35:35.941Z,21.50
2017-11-04T21:38:03.525Z,21.80
2017-11-04T21:40:31.103Z,19.63
2017-11-04T21:42:58.737Z,21.90
2017-11-04T21:45:26.289Z,22.40
2017-11-04T21:47:53.826Z,19.57
2017-11-04T21:50:21.365Z,22.00
2017-11-04T21:52:48.981Z,22.80
2017-11-04T21:55:16.520Z,21.43
2017-11-04T21:57:44.107Z,21.73
2017-11-04T22:00:11.646Z,18.87
2017-11-04T22:02:39.488Z,22.27
2017-11-04T22:05:07.163Z,22.30
2017-11-04T22:07:34.705Z,21.10
2017-11-04T22:10:02.230Z,20.77
2017-11-04T22:12:29.809Z,20.73
2017-11-04T22:14:57.347Z,22.17
2017-11-04T22:17:24.923Z,22.60
2017-11-04T22:19:52.461Z,21.37
2017-11-04T22:22:19.999Z,22.73
2017-11-04T22:24:47.568Z,21.37
2017-11-04T22:27:15.109Z,21.97
2017-11-04T22:29:42.693Z,21.60
2017-11-04T22:32:10.352Z,21.50
2017-11-04T22:34:37.896Z,23.33
2017-11-04T22:37:05.508Z,24.10
2017-11-04T22:39:33.046Z,22.87
2017-11-04T22:42:00.576Z,23.27
2017-11-04T22:44:28.139Z,22.53
2017-11-04T22:46:55.731Z,20.83
2017-11-04T22:49:23.275Z,21.67
2017-11-04T22:51:50.817Z,23.77
2017-11-04T22:54:18.357Z,23.90
2017-11-04T22:56:45.905Z,23.20
2017-11-04T22:59:13.552Z,21.60
2017-11-04T23:01:41.394Z,21.43
2017-11-04T23:04:08.931Z,22.50
2017-11-04T23:06:36.468Z,25.60
2017-11-04T23:09:04.004Z,23.90
2017-11-04T23:11:31.548Z,21.00
2017-11-04T23:13:59.084Z,22.87
2017-11-04T23:16:26.634Z,24.27
2017-11-04T23:18:54.212Z,24.10
2017-11-04T23:21:21.748Z,25.13
2017-11-04T23:23:49.358Z,24.73
2017-11-04T23:26:16.894Z,23.80
2017-11-04T23:28:44.437Z,23.80
2017-11-04T23:31:12.958Z,21.70
2017-11-04T23:33:40.502Z,20.93
2017-11-04T23:36:08.075Z,21.43
2017-11-04T23:38:35.618Z,24.27
2017-11-04T23:41:03.148Z,25.70
2017-11-04T23:43:30.722Z,22.97
2017-11-04T23:45:58.259Z,25.13
2017-11-04T23:48:25.799Z,25.43
2017-11-04T23:50:53.341Z,23.63
2017-11-04T23:53:20.889Z,21.53
2017-11-04T23:55:48.431Z,24.90
2017-11-04T23:58:16.093Z,22.53
